createdAt,value
2019-03-16T00:00:15.553Z,93.90
2019-03-16T00:02:44.589Z,93.90
2019-03-16T00:05:13.235Z,92.60
2019-03-16T00:07:41.708Z,92.40
2019-03-16T00:10:10.839Z,91.50
2019-03-16T00:12:39.855Z,91.50
2019-03-16T00:15:09.195Z,92.40
2019-03-16T00:17:38.217Z,91.90
2019-03-16T00:20:09.849Z,90.50
2019-03-16T00:22:38.878Z,91.70
2019-03-16T00:25:09.269Z,91.30
2019-03-16T00:27:38.275Z,93.00
2019-03-16T00:30:09.605Z,93.20
2019-03-16T00:32:38.057Z,93.90
2019-03-16T00:35:06.886Z,93.10
2019-03-16T00:37:35.346Z,93.20
2019-03-16T00:40:06.419Z,93.60
2019-03-16T00:42:34.953Z,93.20
2019-03-16T00:45:05.819Z,93.70
2019-03-16T00:47:34.277Z,94.70
2019-03-16T00:50:03.011Z,94.50
2019-03-16T00:52:31.483Z,94.40
2019-03-16T00:54:59.944Z,95.00
2019-03-16T00:57:28.991Z,94.80
2019-03-16T00:59:57.456Z,95.10
2019-03-16T01:02:27.602Z,95.20
2019-03-16T01:04:56.935Z,94.40
2019-03-16T01:07:25.388Z,94.30
2019-03-16T01:09:53.862Z,94.20
2019-03-16T01:12:22.881Z,94.30
2019-03-16T01:14:51.349Z,94.30
2019-03-16T01:17:20.382Z,94.40
2019-03-16T01:19:49.400Z,94.30
2019-03-16T01:22:18.430Z,94.50
2019-03-16T01:24:47.444Z,95.00
2019-03-16T01:27:16.494Z,95.50
2019-03-16T01:29:44.959Z,95.30
2019-03-16T01:32:13.428Z,95.10
2019-03-16T01:34:44.198Z,95.20
2019-03-16T01:37:13.224Z,95.10
2019-03-16T01:39:42.237Z,95.30
2019-03-16T01:42:11.275Z,95.20
2019-03-16T01:44:39.732Z,95.50
2019-03-16T01:47:08.778Z,95.30
2019-03-16T01:49:37.248Z,94.90
2019-03-16T01:52:06.281Z,94.70
2019-03-16T01:54:35.295Z,94.60
2019-03-16T01:57:03.773Z,94.60
2019-03-16T01:59:32.220Z,94.60
2019-03-16T02:02:01.260Z,94.10
2019-03-16T02:04:30.296Z,93.70
2019-03-16T02:06:58.803Z,93.60
2019-03-16T02:09:27.323Z,92.00
2019-03-16T02:11:56.384Z,91.90
2019-03-16T02:14:25.404Z,93.20
2019-03-16T02:16:54.523Z,93.00
2019-03-16T02:19:22.979Z,93.20
2019-03-16T02:21:52.117Z,93.80
2019-03-16T02:24:21.489Z,91.80
2019-03-16T02:26:50.626Z,92.30
2019-03-16T02:29:19.758Z,91.20
2019-03-16T02:31:48.850Z,91.60
2019-03-16T02:34:17.877Z,92.10
2019-03-16T02:36:53.600Z,91.30
2019-03-16T02:39:22.670Z,91.60
2019-03-16T02:41:51.735Z,90.90
2019-03-16T02:44:20.773Z,92.00
2019-03-16T02:46:49.801Z,92.00
2019-03-16T02:49:18.840Z,92.10
2019-03-16T02:51:47.882Z,92.10
2019-03-16T02:54:16.922Z,91.00
2019-03-16T02:56:45.958Z,91.20
2019-03-16T02:59:14.432Z,91.00
2019-03-16T03:01:42.979Z,90.10
2019-03-16T03:04:11.458Z,89.00
2019-03-16T03:06:40.484Z,88.80
2019-03-16T03:09:09.599Z,89.30
2019-03-16T03:11:38.620Z,88.10
2019-03-16T03:14:07.664Z,90.00
2019-03-16T03:16:36.701Z,90.20
2019-03-16T03:19:05.754Z,90.30
2019-03-16T03:21:34.824Z,90.00
2019-03-16T03:24:03.862Z,90.90
2019-03-16T03:26:32.889Z,91.10
2019-03-16T03:29:01.921Z,90.80
2019-03-16T03:31:30.954Z,90.20
2019-03-16T03:34:02.549Z,90.30
2019-03-16T03:36:30.734Z,90.60
2019-03-16T03:38:59.849Z,90.50
2019-03-16T03:41:28.314Z,90.50
2019-03-16T03:43:57.352Z,91.20
2019-03-16T03:46:25.810Z,90.90
2019-03-16T03:48:54.275Z,91.00
2019-03-16T03:51:23.301Z,90.90
2019-03-16T03:53:51.755Z,90.70
2019-03-16T03:56:20.803Z,91.30
2019-03-16T03:58:49.929Z,91.10
2019-03-16T04:01:19.136Z,90.60
2019-03-16T04:03:47.729Z,90.50
2019-03-16T04:06:16.198Z,90.00
2019-03-16T04:08:44.675Z,90.80
2019-03-16T04:11:13.144Z,91.20
2019-03-16T04:13:41.622Z,91.30
2019-03-16T04:16:10.101Z,90.70
2019-03-16T04:18:38.561Z,91.00
2019-03-16T04:21:07.604Z,90.60
2019-03-16T04:23:36.073Z,90.30
2019-03-16T04:26:04.630Z,90.10
2019-03-16T04:28:33.089Z,90.40
2019-03-16T04:31:02.142Z,90.80
2019-03-16T04:33:31.174Z,90.70
2019-03-16T04:35:59.647Z,90.10
2019-03-16T04:38:28.105Z,90.30
2019-03-16T04:40:57.149Z,90.00
2019-03-16T04:43:25.595Z,90.00
2019-03-16T04:45:54.633Z,88.80
2019-03-16T04:48:23.669Z,90.00
2019-03-16T04:50:53.058Z,90.20
2019-03-16T04:53:22.551Z,90.10
2019-03-16T04:55:51.631Z,90.00
2019-03-16T04:58:20.636Z,90.40
2019-03-16T05:00:49.671Z,91.00
2019-03-16T05:03:18.688Z,90.00
2019-03-16T05:05:47.723Z,89.50
2019-03-16T05:08:16.750Z,89.50
2019-03-16T05:10:45.232Z,90.10
2019-03-16T05:13:14.268Z,90.30
2019-03-16T05:15:43.302Z,88.70
2019-03-16T05:18:12.316Z,88.40
2019-03-16T05:20:41.342Z,87.30
2019-03-16T05:23:10.382Z,87.80
2019-03-16T05:25:39.404Z,88.40
2019-03-16T05:28:08.452Z,88.60
2019-03-16T05:30:37.476Z,89.00
2019-03-16T05:33:06.518Z,88.00
2019-03-16T05:35:35.620Z,88.10
2019-03-16T05:38:04.656Z,89.00
2019-03-16T05:40:33.700Z,88.90
2019-03-16T05:43:02.875Z,88.50
2019-03-16T05:45:32.116Z,88.10
2019-03-16T05:48:01.153Z,87.30
2019-03-16T05:50:30.185Z,87.30
2019-03-16T05:52:59.210Z,87.10
2019-03-16T05:55:28.249Z,85.10
2019-03-16T05:57:57.268Z,86.30
2019-03-16T06:00:26.301Z,85.70
2019-03-16T06:02:55.341Z,86.00
2019-03-16T06:05:23.802Z,84.00
2019-03-16T06:07:52.858Z,85.30
2019-03-16T06:10:21.979Z,84.90
2019-03-16T06:12:51.103Z,84.60
2019-03-16T06:15:20.122Z,85.10
2019-03-16T06:17:49.237Z,84.20
2019-03-16T06:20:18.279Z,84.50
2019-03-16T06:22:47.313Z,84.60
2019-03-16T06:25:16.339Z,83.20
2019-03-16T06:27:45.387Z,82.90
2019-03-16T06:30:15.987Z,83.50
2019-03-16T06:32:45.447Z,82.90
2019-03-16T06:35:24.503Z,83.40
2019-03-16T06:37:45.601Z,83.50
2019-03-16T06:40:14.693Z,83.40
2019-03-16T06:42:43.723Z,82.70
2019-03-16T06:45:13.087Z,82.70
2019-03-16T06:47:42.135Z,82.90
2019-03-16T06:50:15.897Z,81.90
2019-03-16T06:52:44.924Z,81.90
2019-03-16T06:55:14.065Z,81.00
2019-03-16T06:57:43.119Z,81.10
2019-03-16T07:00:16.934Z,81.90
2019-03-16T07:02:46.027Z,80.50
2019-03-16T07:05:15.315Z,80.00
2019-03-16T07:07:44.405Z,80.60
2019-03-16T07:10:14.071Z,79.00
2019-03-16T07:12:43.088Z,79.40
2019-03-16T07:15:13.346Z,79.20
2019-03-16T07:17:42.361Z,79.30
2019-03-16T07:20:13.804Z,79.10
2019-03-16T07:22:42.998Z,76.90
2019-03-16T07:25:12.107Z,76.30
2019-03-16T07:27:41.116Z,76.90
2019-03-16T07:30:14.296Z,77.40
2019-03-16T07:32:43.312Z,76.80
2019-03-16T07:35:12.598Z,78.40
2019-03-16T07:37:41.833Z,76.30
2019-03-16T07:40:13.161Z,75.90
2019-03-16T07:42:42.180Z,75.70
2019-03-16T07:45:12.245Z,76.00
2019-03-16T07:47:41.328Z,75.90
2019-03-16T07:50:12.030Z,74.70
2019-03-16T07:52:41.066Z,74.00
2019-03-16T07:55:10.410Z,74.00
2019-03-16T07:57:40.733Z,73.60
2019-03-16T08:00:11.775Z,73.10
2019-03-16T08:02:41.061Z,70.20
2019-03-16T08:05:18.254Z,70.90
2019-03-16T08:07:41.013Z,70.40
2019-03-16T08:10:10.984Z,70.80
2019-03-16T08:12:40.292Z,70.50
2019-03-16T08:15:10.682Z,69.40
2019-03-16T08:17:39.781Z,69.80
2019-03-16T08:20:10.045Z,69.90
2019-03-16T08:22:39.237Z,70.00
2019-03-16T08:25:09.031Z,70.10
2019-03-16T08:27:38.051Z,69.90
2019-03-16T08:30:13.308Z,70.20
2019-03-16T08:32:42.341Z,70.90
2019-03-16T08:35:11.437Z,71.50
2019-03-16T08:37:40.537Z,71.40
2019-03-16T08:40:11.376Z,71.40
2019-03-16T08:42:40.570Z,71.90
2019-03-16T08:45:10.433Z,72.00
2019-03-16T08:47:39.458Z,72.40
2019-03-16T08:50:10.360Z,72.50
2019-03-16T08:52:39.395Z,72.70
2019-03-16T08:55:09.271Z,72.70
2019-03-16T08:57:38.306Z,73.20
2019-03-16T09:00:12.346Z,73.80
2019-03-16T09:02:41.442Z,74.20
2019-03-16T09:05:10.545Z,75.00
2019-03-16T09:07:39.616Z,76.40
2019-03-16T09:10:09.941Z,76.70
2019-03-16T09:12:39.048Z,77.40
2019-03-16T09:15:15.920Z,78.50
2019-03-16T09:17:45.131Z,79.10
2019-03-16T09:20:14.892Z,79.70
2019-03-16T09:22:43.954Z,80.50
2019-03-16T09:25:13.136Z,80.40
2019-03-16T09:27:42.266Z,80.70
2019-03-16T09:30:15.526Z,80.50
2019-03-16T09:32:44.646Z,80.90
2019-03-16T09:35:13.746Z,81.50
2019-03-16T09:37:42.776Z,81.60
2019-03-16T09:40:11.889Z,81.50
2019-03-16T09:42:40.931Z,82.00
2019-03-16T09:45:12.154Z,82.50
2019-03-16T09:47:41.204Z,82.70
2019-03-16T09:50:10.962Z,82.60
2019-03-16T09:52:40.269Z,82.50
2019-03-16T09:55:10.927Z,82.10
2019-03-16T09:57:40.018Z,82.40
2019-03-16T10:00:11.986Z,82.30
2019-03-16T10:02:41.028Z,83.00
2019-03-16T10:05:10.052Z,83.00
2019-03-16T10:07:39.081Z,82.90
2019-03-16T10:10:11.197Z,82.70
2019-03-16T10:12:40.233Z,82.70
2019-03-16T10:15:10.798Z,83.30
2019-03-16T10:17:39.835Z,83.20
2019-03-16T10:20:10.807Z,83.70
2019-03-16T10:22:39.904Z,83.90
2019-03-16T10:25:09.517Z,84.40
2019-03-16T10:27:38.557Z,84.70
2019-03-16T10:30:14.949Z,84.90
2019-03-16T10:32:44.005Z,84.70
2019-03-16T10:35:13.096Z,84.90
2019-03-16T10:37:42.214Z,84.80
2019-03-16T10:40:12.601Z,85.00
2019-03-16T10:42:41.646Z,85.40
2019-03-16T10:45:11.811Z,85.80
2019-03-16T10:47:40.877Z,86.20
2019-03-16T10:50:14.530Z,86.40
2019-03-16T10:52:43.574Z,86.20
2019-03-16T10:55:12.681Z,86.50
2019-03-16T10:57:41.710Z,86.40
2019-03-16T11:00:15.592Z,86.60
2019-03-16T11:02:44.699Z,86.80
2019-03-16T11:05:13.810Z,87.20
2019-03-16T11:07:42.855Z,87.40
2019-03-16T11:10:13.310Z,87.20
2019-03-16T11:12:42.538Z,87.20
2019-03-16T11:15:12.623Z,87.10
2019-03-16T11:17:41.640Z,87.20
2019-03-16T11:20:15.512Z,87.00
2019-03-16T11:22:44.545Z,87.40
2019-03-16T11:25:13.661Z,87.50
2019-03-16T11:27:42.702Z,87.20
2019-03-16T11:30:13.585Z,87.00
2019-03-16T11:32:42.665Z,86.90
2019-03-16T11:35:11.977Z,87.00
2019-03-16T11:37:41.070Z,87.20
2019-03-16T11:40:15.336Z,87.60
2019-03-16T11:42:44.366Z,87.50
2019-03-16T11:45:13.521Z,87.60
2019-03-16T11:47:42.548Z,87.40
2019-03-16T11:50:12.330Z,87.20
2019-03-16T11:52:41.367Z,87.10
2019-03-16T11:55:10.886Z,87.10
2019-03-16T11:57:39.928Z,87.30
2019-03-16T12:00:13.237Z,87.30
2019-03-16T12:02:42.273Z,87.50
2019-03-16T12:05:12.155Z,87.50
2019-03-16T12:07:41.405Z,88.00
2019-03-16T12:10:11.752Z,88.30
2019-03-16T12:12:40.845Z,88.50
2019-03-16T12:15:11.225Z,88.90
2019-03-16T12:17:40.330Z,88.90
2019-03-16T12:20:13.640Z,89.00
2019-03-16T12:22:42.683Z,89.00
2019-03-16T12:25:12.535Z,89.00
2019-03-16T12:27:41.646Z,89.20
2019-03-16T12:30:13.029Z,89.10
2019-03-16T12:32:42.075Z,88.50
2019-03-16T12:35:11.358Z,88.00
2019-03-16T12:37:40.371Z,87.30
2019-03-16T12:40:12.052Z,86.50
2019-03-16T12:42:41.143Z,85.80
2019-03-16T12:45:14.716Z,85.80
2019-03-16T12:47:43.826Z,86.00
2019-03-16T12:50:13.296Z,85.40
2019-03-16T12:52:42.547Z,85.50
2019-03-16T12:55:12.425Z,85.50
2019-03-16T12:57:41.566Z,85.30
2019-03-16T13:00:18.266Z,85.50
2019-03-16T13:02:47.450Z,85.60
2019-03-16T13:05:16.619Z,86.00
2019-03-16T13:07:45.674Z,86.10
2019-03-16T13:10:16.153Z,86.20
2019-03-16T13:12:45.330Z,86.40
2019-03-16T13:15:14.432Z,86.20
2019-03-16T13:17:43.538Z,86.10
2019-03-16T13:20:14.124Z,86.00
2019-03-16T13:22:43.160Z,86.00
2019-03-16T13:25:12.443Z,86.10
2019-03-16T13:27:41.490Z,86.00
2019-03-16T13:30:13.595Z,86.30
2019-03-16T13:32:42.662Z,86.40
2019-03-16T13:35:11.837Z,86.40
2019-03-16T13:37:40.954Z,86.20
2019-03-16T13:40:14.831Z,86.10
2019-03-16T13:42:43.871Z,86.30
2019-03-16T13:45:13.832Z,86.30
2019-03-16T13:47:42.903Z,86.60
2019-03-16T13:50:14.301Z,86.90
2019-03-16T13:52:43.658Z,87.30
2019-03-16T13:55:12.759Z,87.40
2019-03-16T13:57:41.862Z,87.60
2019-03-16T14:00:14.320Z,87.90
2019-03-16T14:02:43.539Z,88.30
2019-03-16T14:05:12.647Z,88.60
2019-03-16T14:07:42.074Z,88.80
2019-03-16T14:10:16.661Z,89.00
2019-03-16T14:12:45.711Z,89.10
2019-03-16T14:15:14.741Z,89.20
2019-03-16T14:17:44.167Z,89.20
2019-03-16T14:20:15.308Z,90.00
2019-03-16T14:22:44.353Z,89.40
2019-03-16T14:25:13.569Z,89.50
2019-03-16T14:27:42.726Z,89.80
2019-03-16T14:30:29.456Z,90.00
2019-03-16T14:32:48.617Z,90.00
2019-03-16T14:35:17.723Z,90.00
2019-03-16T14:37:46.787Z,90.10
2019-03-16T14:40:16.359Z,90.20
2019-03-16T14:42:45.381Z,90.30
2019-03-16T14:45:15.646Z,90.30
2019-03-16T14:47:44.998Z,90.50
2019-03-16T14:50:17.055Z,90.50
2019-03-16T14:52:46.084Z,90.80
2019-03-16T14:55:15.516Z,90.90
2019-03-16T14:57:44.580Z,90.90
2019-03-16T15:00:15.442Z,90.80
2019-03-16T15:02:46.035Z,90.70
2019-03-16T15:05:15.796Z,90.50
2019-03-16T15:07:44.964Z,90.10
2019-03-16T15:10:17.673Z,90.00
2019-03-16T15:12:46.898Z,89.20
2019-03-16T15:15:20.830Z,88.80
2019-03-16T15:17:49.852Z,88.40
2019-03-16T15:20:18.911Z,88.10
2019-03-16T15:22:47.947Z,88.00
2019-03-16T15:25:17.031Z,87.60
2019-03-16T15:27:46.146Z,86.80
2019-03-16T15:30:18.305Z,86.70
2019-03-16T15:32:47.348Z,86.70
2019-03-16T15:35:16.402Z,86.50
2019-03-16T15:37:45.449Z,86.10
2019-03-16T15:40:15.532Z,85.80
2019-03-16T15:42:44.706Z,85.50
2019-03-16T15:45:21.404Z,85.00
2019-03-16T15:47:50.518Z,85.30
2019-03-16T15:50:19.579Z,83.90
2019-03-16T15:52:48.628Z,84.00
2019-03-16T15:55:17.798Z,83.50
2019-03-16T15:57:46.838Z,83.20
2019-03-16T16:00:17.806Z,82.50
2019-03-16T16:02:47.197Z,82.30
2019-03-16T16:05:16.263Z,83.10
2019-03-16T16:07:45.599Z,83.40
2019-03-16T16:10:18.707Z,83.30
2019-03-16T16:12:47.744Z,83.90
2019-03-16T16:15:17.521Z,83.60
2019-03-16T16:17:46.633Z,83.80
2019-03-16T16:20:16.819Z,84.10
2019-03-16T16:22:45.872Z,84.10
2019-03-16T16:25:15.168Z,84.10
2019-03-16T16:27:44.209Z,84.60
2019-03-16T16:30:17.512Z,83.90
2019-03-16T16:32:46.545Z,83.60
2019-03-16T16:35:16.326Z,83.10
2019-03-16T16:37:45.396Z,82.50
2019-03-16T16:40:16.735Z,82.60
2019-03-16T16:42:45.778Z,82.50
2019-03-16T16:45:16.064Z,82.10
2019-03-16T16:47:45.123Z,81.90
2019-03-16T16:50:22.225Z,81.90
2019-03-16T16:52:51.347Z,81.30
2019-03-16T16:55:20.409Z,81.50
2019-03-16T16:57:49.473Z,81.20
2019-03-16T17:00:24.023Z,81.20
2019-03-16T17:02:53.066Z,80.90
2019-03-16T17:05:22.104Z,80.60
2019-03-16T17:07:51.144Z,80.50
2019-03-16T17:10:20.272Z,80.60
2019-03-16T17:12:49.317Z,81.00
2019-03-16T17:15:24.530Z,81.10
2019-03-16T17:17:53.586Z,81.30
2019-03-16T17:20:22.684Z,81.40
2019-03-16T17:22:51.754Z,81.50
2019-03-16T17:25:20.803Z,81.50
2019-03-16T17:27:49.850Z,81.20
2019-03-16T17:30:24.155Z,81.30
2019-03-16T17:32:53.193Z,81.40
2019-03-16T17:35:22.315Z,81.50
2019-03-16T17:37:51.347Z,81.50
2019-03-16T17:40:20.481Z,81.60
2019-03-16T17:42:49.520Z,81.50
2019-03-16T17:45:20.343Z,81.50
2019-03-16T17:47:49.377Z,81.60
2019-03-16T17:50:18.523Z,81.80
2019-03-16T17:52:47.638Z,81.80
2019-03-16T17:55:17.963Z,81.80
2019-03-16T17:57:47.008Z,81.80
2019-03-16T18:00:17.211Z,82.60
2019-03-16T18:02:51.632Z,81.80
2019-03-16T18:05:17.208Z,81.60
2019-03-16T18:07:46.330Z,81.30
2019-03-16T18:10:15.849Z,81.30
2019-03-16T18:12:45.045Z,81.20
2019-03-16T18:15:15.729Z,81.20
2019-03-16T18:17:44.852Z,80.60
2019-03-16T18:20:17.661Z,80.40
2019-03-16T18:22:47.866Z,80.40
2019-03-16T18:25:17.441Z,80.30
2019-03-16T18:27:46.492Z,80.20
2019-03-16T18:30:20.583Z,80.30
2019-03-16T18:32:49.639Z,80.30
2019-03-16T18:35:18.775Z,80.40
2019-03-16T18:37:48.057Z,80.30
2019-03-16T18:40:17.453Z,80.30
2019-03-16T18:42:46.558Z,80.10
2019-03-16T18:45:27.769Z,80.20
2019-03-16T18:47:56.809Z,79.80
2019-03-16T18:50:25.926Z,79.90
2019-03-16T18:52:55.037Z,80.10
2019-03-16T18:55:24.102Z,80.00
2019-03-16T18:57:53.126Z,79.90
2019-03-16T19:00:22.206Z,80.10
2019-03-16T19:02:51.406Z,80.00
2019-03-16T19:05:20.464Z,79.60
2019-03-16T19:07:49.488Z,79.60
2019-03-16T19:10:18.554Z,79.50
2019-03-16T19:12:47.680Z,78.90
2019-03-16T19:15:17.682Z,78.90
2019-03-16T19:17:58.027Z,78.70
2019-03-16T19:20:18.200Z,79.00
2019-03-16T19:22:47.309Z,79.00
2019-03-16T19:25:22.868Z,79.10
2019-03-16T19:27:52.000Z,78.30
2019-03-16T19:30:21.066Z,78.20
2019-03-16T19:32:50.138Z,77.70
2019-03-16T19:35:19.241Z,77.30
2019-03-16T19:37:48.273Z,77.30
2019-03-16T19:40:21.459Z,77.20
2019-03-16T19:42:50.678Z,77.20
2019-03-16T19:45:19.761Z,77.40
2019-03-16T19:47:48.809Z,77.50
2019-03-16T19:50:18.033Z,77.70
2019-03-16T19:52:47.058Z,77.00
2019-03-16T19:55:16.146Z,77.20
2019-03-16T19:57:45.182Z,77.60
2019-03-16T20:00:15.571Z,77.60
2019-03-16T20:02:50.275Z,77.70
2019-03-16T20:05:15.557Z,77.50
2019-03-16T20:07:44.585Z,77.50
2019-03-16T20:10:14.949Z,77.60
2019-03-16T20:12:44.054Z,77.40
2019-03-16T20:15:15.092Z,77.30
2019-03-16T20:17:44.122Z,77.30
2019-03-16T20:20:14.393Z,77.10
2019-03-16T20:22:43.685Z,77.30
2019-03-16T20:25:12.899Z,77.10
2019-03-16T20:27:41.971Z,76.90
2019-03-16T20:30:25.858Z,77.00
2019-03-16T20:32:50.099Z,77.00
2019-03-16T20:35:18.945Z,76.70
2019-03-16T20:37:48.097Z,76.80
2019-03-16T20:40:17.503Z,76.90
2019-03-16T20:42:46.598Z,76.70
2019-03-16T20:45:15.825Z,76.30
2019-03-16T20:47:45.122Z,76.00
2019-03-16T20:50:18.832Z,75.50
2019-03-16T20:52:47.880Z,74.80
2019-03-16T20:55:16.993Z,74.70
2019-03-16T20:57:46.036Z,74.10
2019-03-16T21:00:17.595Z,74.10
2019-03-16T21:02:47.078Z,74.00
2019-03-16T21:05:16.370Z,74.20
2019-03-16T21:07:45.407Z,74.30
2019-03-16T21:10:14.423Z,74.00
2019-03-16T21:12:43.534Z,74.20
2019-03-16T21:15:14.612Z,74.10
2019-03-16T21:17:43.789Z,74.30
2019-03-16T21:20:16.935Z,74.50
2019-03-16T21:22:45.955Z,74.70
2019-03-16T21:25:15.916Z,75.00
2019-03-16T21:27:44.962Z,75.10
2019-03-16T21:30:16.797Z,75.20
2019-03-16T21:32:45.848Z,75.20
2019-03-16T21:35:14.898Z,75.30
2019-03-16T21:37:44.008Z,75.30
2019-03-16T21:40:16.225Z,75.30
2019-03-16T21:42:45.277Z,75.50
2019-03-16T21:45:14.635Z,75.70
2019-03-16T21:47:43.689Z,75.70
2019-03-16T21:50:16.378Z,75.80
2019-03-16T21:52:45.487Z,76.20
2019-03-16T21:55:15.076Z,76.60
2019-03-16T21:57:44.205Z,76.80
2019-03-16T22:00:15.462Z,77.00
2019-03-16T22:02:44.519Z,77.00
2019-03-16T22:05:13.645Z,76.80
2019-03-16T22:07:42.741Z,76.80
2019-03-16T22:10:14.190Z,76.70
2019-03-16T22:12:43.209Z,76.60
2019-03-16T22:15:13.611Z,76.60
2019-03-16T22:17:42.815Z,76.50
2019-03-16T22:20:17.961Z,76.30
2019-03-16T22:22:46.986Z,76.00
2019-03-16T22:25:16.475Z,76.20
2019-03-16T22:27:45.559Z,76.30
2019-03-16T22:30:18.141Z,76.50
2019-03-16T22:32:47.182Z,76.50
2019-03-16T22:35:16.228Z,76.60
2019-03-16T22:37:45.261Z,76.70
2019-03-16T22:40:17.212Z,76.60
2019-03-16T22:42:46.305Z,76.50
2019-03-16T22:45:15.403Z,76.70
2019-03-16T22:47:44.448Z,76.70
2019-03-16T22:50:15.792Z,76.90
2019-03-16T22:52:44.885Z,77.20
2019-03-16T22:55:15.978Z,77.40
2019-03-16T22:57:44.928Z,77.50
2019-03-16T23:00:20.545Z,77.60
2019-03-16T23:02:49.643Z,77.80
2019-03-16T23:05:18.663Z,77.90
2019-03-16T23:07:47.721Z,77.90
2019-03-16T23:10:16.828Z,77.90
2019-03-16T23:12:45.846Z,77.90
2019-03-16T23:15:14.907Z,77.90
2019-03-16T23:17:43.976Z,78.00
2019-03-16T23:20:13.080Z,78.20
2019-03-16T23:22:42.105Z,78.30
2019-03-16T23:25:11.520Z,78.40
2019-03-16T23:27:40.605Z,78.40
2019-03-16T23:30:13.282Z,78.20
2019-03-16T23:32:42.318Z,78.30
2019-03-16T23:35:11.404Z,78.20
2019-03-16T23:37:40.420Z,78.00
2019-03-16T23:40:11.770Z,78.00
2019-03-16T23:42:40.866Z,78.00
2019-03-16T23:45:12.190Z,78.10
2019-03-16T23:47:41.566Z,78.20
2019-03-16T23:50:12.019Z,78.30
2019-03-16T23:52:41.133Z,78.50
2019-03-16T23:55:10.493Z,78.80
2019-03-16T23:57:39.515Z,79.10
